Ana Sayfa
METAR-TAF:

METAR-TAF

Havaalanları :

Kopenhag Havalimanı

Kopenhag, Danimarka

Enlem: 55-37N, Boylam: 012-39E, yükseklik: 5 m

Güncel hava durumu gözlemi

Rapor saat 04:20 UTC de 5 dakika önce yapıldı.
Rüzgar doğudan 7 kt
Sıcaklık 5°C
Nem 75%
Basınç 1037 hPa
Görüş mesafesi 10 km veya daha fazla

METAR: EKCH 190420Z AUTO 10007KT 9999NDV NCD 05/01 Q1037 NOSIG

Saat: 06:25 (04:25 UTC)

Tahmin

Rapor saat 23:11 UTC de 5 saat ve 14 dakika önce yapıldı.
Ayın 19'si saat 00 UTC'den ayın 19'si saat 24 UTC'ye kadar geçerli Tahmin
Rüzgar kuzeydoğudan 6 kt
Görüş mesafesi 10 km veya daha fazla
1500 m altında bulut yok ve kümülonimbus yok
Dönüşüyor
ayın 19'si saat 10 UTC'den ayın 19'si saat 12 UTC'ye kadar
Rüzgar güneydan 10 kt
Dönüşüyor
ayın 19'si saat 18 UTC'den ayın 19'si saat 20 UTC'ye kadar
Rüzgar değişken yönden 2 kt

TAF: EKCH 182311Z 1900/1924 04006KT CAVOK BECMG 1910/1912 19010KT BECMG 1918/1920 VRB02KT

4.000'den fazla havaalanı için hava durumu gözlemleri ve tahminleri (METAR ve TAF raporları).

Kullanılabilir istasyonlar harita üzerinde sarı ve kırmızı noktalarla gösterilir.

İstasyonun adını görmek için fareyi noktanın üzerinde gezdirin.

Sonrasında hava gözlem ve tahminlerini görmek için tıklayın.

Haritayı değiştirmek için: yaklaştırmak için siyah artı işaretli yeşil düğmeye ve uzaklaştırmak için de eksi işaretli düğmeye hızla tıklayın; bitişik haritalar için yeşil okları kullanın.


METAR-TAF: